Time;durP1;ratioP1;P1;durP2;ratioP2;P2;SDS_P1;SDS_P2;PMS_P1;PMS_P2;Temp;Humidity;BMP_temperature;BMP_pressure;BME280_temperature;BME280_humidity;BME280_pressure;Samples;Min_cycle;Max_cycle;Signal;HPM_P1;HPM_P2
2021/04/25 00:01:21;;;;;;;44.53;19.35;;;4.80;82.60;;;;;;5074333;28;20486;-77
2021/04/25 00:03:46;;;;;;;41.38;18.75;;;4.80;82.70;;;;;;5074141;28;20020;-76
2021/04/25 00:06:12;;;;;;;51.50;23.30;;;4.80;83.30;;;;;;5075049;28;20067;-77
2021/04/25 00:08:38;;;;;;;49.08;21.52;;;4.70;86.20;;;;;;5074129;28;20115;-76
2021/04/25 00:11:04;;;;;;;44.88;20.20;;;4.70;87.00;;;;;;5074088;28;20027;-76
2021/04/25 00:13:30;;;;;;;53.40;22.92;;;4.70;87.40;;;;;;5074092;28;20486;-76
2021/04/25 00:15:56;;;;;;;51.60;23.45;;;4.70;88.00;;;;;;5075249;28;20099;-76
2021/04/25 00:18:22;;;;;;;54.60;22.63;;;4.70;90.00;;;;;;5058968;28;20394;-75
2021/04/25 00:20:49;;;;;;;45.15;22.75;;;4.60;91.30;;;;;;5053891;28;20471;-75
2021/04/25 00:23:15;;;;;;;45.13;19.15;;;4.50;92.90;;;;;;5054872;28;20035;-75
2021/04/25 00:25:40;;;;;;;44.33;19.85;;;4.50;93.80;;;;;;5055007;28;20494;-76
2021/04/25 00:28:06;;;;;;;46.45;20.45;;;4.50;94.30;;;;;;5053763;28;20025;-75
2021/04/25 00:30:32;;;;;;;47.90;22.60;;;4.40;94.50;;;;;;5055086;28;20025;-75
2021/04/25 00:32:58;;;;;;;50.95;22.80;;;4.40;94.90;;;;;;5053636;28;20032;-75
2021/04/25 00:35:24;;;;;;;41.55;21.27;;;4.40;95.00;;;;;;5053676;28;20116;-76
2021/04/25 00:37:50;;;;;;;46.85;22.40;;;4.40;95.10;;;;;;5065817;28;20017;-75
2021/04/25 00:40:21;;;;;;;60.78;26.00;;;4.40;95.10;;;;;;5074851;28;20031;-76
2021/04/25 00:42:47;;;;;;;55.67;23.73;;;4.30;94.90;;;;;;5074833;28;20027;-75
2021/04/25 00:45:15;;;;;;;62.55;26.48;;;4.40;94.40;;;;;;5074775;28;20020;-75
2021/04/25 00:47:43;;;;;;;73.43;27.42;;;4.40;92.90;;;;;;5074561;28;20036;-75
2021/04/25 00:50:11;;;;;;;64.55;28.75;;;4.40;92.50;;;;;;5073342;28;20020;-75
2021/04/25 00:52:40;;;;;;;72.25;30.90;;;4.40;92.40;;;;;;5073430;28;20082;-75
2021/04/25 00:55:06;;;;;;;70.05;29.45;;;4.40;92.30;;;;;;5074487;28;20069;-75
2021/04/25 00:57:32;;;;;;;65.25;28.48;;;4.30;92.90;;;;;;5073022;28;20032;-75
2021/04/25 00:59:58;;;;;;;69.10;27.50;;;4.30;94.30;;;;;;5074454;28;20028;-75
2021/04/25 01:02:26;;;;;;;62.95;27.50;;;4.30;95.40;;;;;;5074640;28;20021;-76
2021/04/25 01:04:51;;;;;;;65.50;28.92;;;4.20;96.00;;;;;;5074322;28;20188;-76
2021/04/25 01:07:17;;;;;;;56.25;27.67;;;4.20;95.90;;;;;;5067455;28;20060;-75
2021/04/25 01:09:44;;;;;;;68.05;28.00;;;4.20;96.70;;;;;;5054215;28;20106;-75
2021/04/25 01:12:09;;;;;;;67.63;27.83;;;4.10;96.40;;;;;;5052872;28;20025;-75
2021/04/25 01:14:35;;;;;;;74.80;32.15;;;4.00;96.30;;;;;;5052960;28;20021;-75
2021/04/25 01:17:01;;;;;;;75.78;31.80;;;4.00;96.60;;;;;;5054334;28;20426;-75
2021/04/25 01:19:26;;;;;;;85.55;37.88;;;3.90;98.40;;;;;;5054086;28;20559;-76
2021/04/25 01:21:52;;;;;;;55.33;25.00;;;3.80;99.40;;;;;;5053935;28;20029;-75
2021/04/25 01:24:17;;;;;;;57.03;25.10;;;3.80;99.30;;;;;;5052734;28;20029;-76
2021/04/25 01:26:43;;;;;;;78.45;33.53;;;3.70;99.10;;;;;;5053846;28;20041;-75
2021/04/25 01:29:09;;;;;;;57.75;25.23;;;3.70;99.10;;;;;;5053913;28;20017;-76
2021/04/25 01:31:34;;;;;;;59.13;25.88;;;3.70;99.30;;;;;;5052541;28;20029;-75
2021/04/25 01:34:00;;;;;;;58.25;28.92;;;3.60;99.50;;;;;;5052504;28;20422;-75
2021/04/25 01:36:26;;;;;;;44.00;20.90;;;3.60;98.90;;;;;;5052205;28;20021;-77
2021/04/25 01:38:52;;;;;;;58.63;27.52;;;3.60;98.50;;;;;;5071341;28;20024;-75
2021/04/25 01:41:18;;;;;;;60.72;28.33;;;3.60;98.00;;;;;;5073629;28;20401;-76
2021/04/25 01:43:46;;;;;;;59.70;25.52;;;3.40;99.30;;;;;;5073539;28;20025;-76
2021/04/25 01:46:13;;;;;;;56.28;26.30;;;3.40;99.90;;;;;;5073468;28;20086;-76
2021/04/25 01:48:39;;;;;;;52.55;24.33;;;3.40;98.70;;;;;;5073464;28;20035;-75
2021/04/25 01:51:04;;;;;;;53.75;24.27;;;3.30;98.50;;;;;;5072231;28;20032;-75
2021/04/25 01:53:30;;;;;;;58.03;24.45;;;3.30;98.70;;;;;;5073344;28;20032;-76
2021/04/25 01:55:56;;;;;;;59.85;25.75;;;3.20;99.90;;;;;;5073353;28;20492;-76
2021/04/25 01:58:22;;;;;;;60.35;26.95;;;3.20;99.90;;;;;;5071910;28;20086;-75
2021/04/25 02:00:48;;;;;;;59.95;26.77;;;3.20;99.90;;;;;;5072007;28;20094;-76
2021/04/25 02:03:15;;;;;;;58.53;26.25;;;3.10;99.90;;;;;;5072867;28;20477;-75
2021/04/25 02:05:42;;;;;;;54.42;25.65;;;3.00;99.90;;;;;;5067033;28;20410;-75
2021/04/25 02:08:09;;;;;;;54.60;24.90;;;3.00;99.90;;;;;;5073159;28;20591;-75
2021/04/25 02:10:36;;;;;;;51.90;22.70;;;2.90;99.90;;;;;;5071359;28;20393;-75
2021/04/25 02:13:04;;;;;;;51.78;22.30;;;2.90;99.90;;;;;;5073077;28;20024;-75
2021/04/25 02:15:30;;;;;;;43.58;22.77;;;2.90;99.90;;;;;;5071888;28;20021;-75
2021/04/25 02:17:55;;;;;;;47.83;22.20;;;2.80;99.90;;;;;;5072956;28;20033;-75
2021/04/25 02:20:22;;;;;;;45.60;22.67;;;2.80;99.90;;;;;;5073093;28;20051;-76
2021/04/25 02:22:49;;;;;;;52.33;22.77;;;2.80;99.90;;;;;;5072991;28;20036;-75
2021/04/25 02:25:16;;;;;;;35.05;17.17;;;2.70;99.90;;;;;;5072983;28;20020;-76
2021/04/25 02:27:42;;;;;;;35.35;16.77;;;2.50;99.90;;;;;;5072842;28;20043;-75
2021/04/25 02:30:13;;;;;;;43.15;20.58;;;2.50;99.90;;;;;;5072967;28;20095;-75
2021/04/25 02:32:39;;;;;;;42.65;18.15;;;2.50;99.90;;;;;;5071594;28;20025;-75
2021/04/25 02:35:07;;;;;;;38.13;18.10;;;2.50;99.90;;;;;;5070895;28;20027;-76
2021/04/25 02:37:33;;;;;;;35.72;17.10;;;2.40;99.90;;;;;;5072804;28;20013;-75
2021/04/25 02:39:59;;;;;;;47.35;16.73;;;2.40;99.90;;;;;;5071504;28;20499;-76
2021/04/25 02:42:25;;;;;;;41.45;17.65;;;2.50;99.90;;;;;;5072494;28;20047;-75
2021/04/25 02:44:50;;;;;;;47.20;22.83;;;2.50;99.90;;;;;;5072787;28;20104;-76
2021/04/25 02:47:16;;;;;;;43.65;20.48;;;2.50;99.90;;;;;;5072600;28;20029;-75
2021/04/25 02:49:42;;;;;;;26.75;14.68;;;2.50;99.90;;;;;;5072755;28;20093;-76
2021/04/25 02:52:07;;;;;;;22.38;12.93;;;2.50;99.90;;;;;;5072581;28;20067;-75
2021/04/25 02:54:34;;;;;;;25.50;13.27;;;2.50;99.90;;;;;;5072770;28;20045;-76
2021/04/25 02:57:00;;;;;;;80.43;31.00;;;2.40;99.90;;;;;;5071301;28;20016;-75
2021/04/25 02:59:26;;;;;;;80.05;32.08;;;2.40;99.90;;;;;;5073116;28;20126;-76
2021/04/25 03:01:52;;;;;;;76.55;32.15;;;2.50;99.90;;;;;;5072203;28;20497;-75
2021/04/25 03:04:18;;;;;;;85.22;35.47;;;2.50;99.90;;;;;;5071300;28;20024;-75
2021/04/25 03:06:43;;;;;;;74.90;31.63;;;2.60;99.90;;;;;;5053802;28;20128;-75
2021/04/25 03:09:09;;;;;;;66.03;28.90;;;2.50;99.90;;;;;;5051281;28;20021;-76
2021/04/25 03:11:35;;;;;;;68.80;27.60;;;2.60;99.90;;;;;;5051131;28;20029;-75
2021/04/25 03:14:00;;;;;;;60.72;29.75;;;2.60;99.90;;;;;;5052396;28;20053;-76
2021/04/25 03:16:26;;;;;;;71.53;34.13;;;2.60;99.90;;;;;;5056254;28;20100;-75
2021/04/25 03:18:52;;;;;;;67.55;28.48;;;2.60;99.90;;;;;;5056229;28;20071;-75
2021/04/25 03:21:18;;;;;;;53.55;26.55;;;2.50;99.90;;;;;;5056304;28;20075;-76
2021/04/25 03:23:43;;;;;;;52.58;22.08;;;2.60;99.90;;;;;;5056216;28;20482;-76
2021/04/25 03:26:09;;;;;;;55.13;23.02;;;2.60;99.90;;;;;;5058370;28;20051;-77
2021/04/25 03:28:35;;;;;;;42.10;20.08;;;2.60;99.90;;;;;;5076076;28;20032;-76
2021/04/25 03:31:00;;;;;;;51.05;22.58;;;2.60;99.90;;;;;;5075973;28;20055;-76
2021/04/25 03:33:26;;;;;;;59.45;28.60;;;2.60;99.90;;;;;;5075972;28;20042;-76
2021/04/25 03:35:52;;;;;;;61.38;30.52;;;2.60;99.90;;;;;;5074665;28;20036;-77
2021/04/25 03:38:18;;;;;;;59.97;30.75;;;2.60;99.90;;;;;;5075963;28;20032;-76
2021/04/25 03:40:43;;;;;;;58.13;28.27;;;2.60;99.90;;;;;;5075933;28;20020;-77
2021/04/25 03:43:09;;;;;;;47.42;23.40;;;2.70;99.90;;;;;;5074548;28;20016;-76
2021/04/25 03:45:35;;;;;;;36.90;17.85;;;2.60;99.90;;;;;;5075777;28;20025;-76
2021/04/25 03:48:01;;;;;;;32.10;13.75;;;2.50;99.90;;;;;;5074539;28;20020;-76
2021/04/25 03:50:27;;;;;;;23.17;13.55;;;2.50;99.90;;;;;;5075787;28;20031;-76
2021/04/25 03:52:53;;;;;;;25.50;14.25;;;2.50;99.90;;;;;;5075689;28;20125;-76
2021/04/25 03:55:20;;;;;;;32.33;16.40;;;2.50;99.90;;;;;;5075571;28;20027;-76
2021/04/25 03:57:47;;;;;;;57.50;25.52;;;2.50;99.90;;;;;;5058489;28;20033;-75
2021/04/25 04:00:15;;;;;;;57.85;26.77;;;2.60;99.90;;;;;;5054252;28;20390;-76
2021/04/25 04:02:41;;;;;;;72.38;34.17;;;2.70;99.90;;;;;;5054167;28;20496;-75
2021/04/25 04:05:08;;;;;;;54.28;26.75;;;2.70;99.90;;;;;;5073796;28;20107;-76
2021/04/25 04:07:34;;;;;;;43.53;22.88;;;2.80;99.90;;;;;;5074040;28;20058;-75
2021/04/25 04:10:00;;;;;;;42.47;21.77;;;2.80;99.90;;;;;;5070751;28;20021;-76
2021/04/25 04:12:25;;;;;;;44.88;21.17;;;2.90;99.90;;;;;;5074073;28;20031;-75
2021/04/25 04:14:51;;;;;;;53.83;24.25;;;3.00;99.90;;;;;;5074086;28;20470;-75
2021/04/25 04:17:18;;;;;;;55.55;24.92;;;3.10;99.90;;;;;;5075285;28;20374;-75
2021/04/25 04:19:44;;;;;;;46.72;23.92;;;3.10;99.90;;;;;;5075317;28;20040;-76
2021/04/25 04:22:09;;;;;;;47.83;24.55;;;3.20;99.90;;;;;;5075121;28;20462;-76
2021/04/25 04:24:35;;;;;;;48.08;24.70;;;3.30;99.90;;;;;;5073760;28;20039;-76
2021/04/25 04:27:00;;;;;;;38.55;18.55;;;3.40;99.90;;;;;;5064015;28;20068;-76
2021/04/25 04:29:27;;;;;;;40.92;19.50;;;3.40;99.90;;;;;;5053687;28;20522;-76
2021/04/25 04:31:54;;;;;;;45.38;23.00;;;3.50;99.90;;;;;;5068694;28;20024;-76
2021/04/25 04:34:20;;;;;;;53.95;24.67;;;3.60;99.90;;;;;;5068637;28;20526;-77
2021/04/25 04:36:45;;;;;;;41.05;21.20;;;3.60;99.90;;;;;;5063106;28;20031;-76
2021/04/25 04:39:12;;;;;;;46.15;23.65;;;3.70;99.90;;;;;;5073519;28;20016;-76
2021/04/25 04:41:38;;;;;;;48.03;22.80;;;3.80;99.90;;;;;;5074799;28;20066;-76
2021/04/25 04:44:04;;;;;;;45.42;23.88;;;3.80;99.90;;;;;;5074768;28;20025;-77
2021/04/25 04:46:29;;;;;;;50.92;24.52;;;3.90;99.90;;;;;;5073419;28;20039;-77
2021/04/25 04:48:55;;;;;;;49.97;24.17;;;4.00;99.90;;;;;;5073277;28;20107;-76
2021/04/25 04:51:21;;;;;;;100.07;45.45;;;4.10;99.90;;;;;;5073379;28;20020;-77
2021/04/25 04:53:46;;;;;;;260.75;120.28;;;4.20;99.90;;;;;;5074462;28;20104;-75
2021/04/25 04:56:12;;;;;;;151.88;75.30;;;4.20;96.80;;;;;;5074421;28;20032;-75
2021/04/25 04:58:38;;;;;;;92.13;46.42;;;4.30;95.10;;;;;;5073060;28;20116;-75
2021/04/25 05:01:03;;;;;;;86.50;45.65;;;4.40;95.60;;;;;;5073161;28;20020;-77
2021/04/25 05:03:29;;;;;;;81.80;38.53;;;4.50;93.90;;;;;;5073088;28;20032;-75
2021/04/25 05:05:54;;;;;;;49.88;27.15;;;4.60;93.90;;;;;;5074248;28;20048;-77
2021/04/25 05:08:20;;;;;;;88.80;39.20;;;4.70;93.90;;;;;;5073012;28;20032;-75
2021/04/25 05:10:46;;;;;;;122.10;51.55;;;4.80;91.00;;;;;;5074463;28;20489;-75
2021/04/25 05:13:12;;;;;;;143.75;55.75;;;4.90;85.70;;;;;;5074420;28;20056;-75
2021/04/25 05:15:39;;;;;;;78.70;34.20;;;5.00;86.40;;;;;;5070917;28;20107;-76
2021/04/25 05:18:06;;;;;;;253.48;94.53;;;5.10;87.90;;;;;;5072703;28;20024;-75
2021/04/25 05:20:31;;;;;;;145.18;55.25;;;5.20;90.80;;;;;;5074048;28;20012;-76
2021/04/25 05:22:58;;;;;;;103.80;41.10;;;5.30;90.20;;;;;;5063767;28;20058;-75
2021/04/25 05:25:24;;;;;;;57.97;24.23;;;5.40;87.50;;;;;;5072714;28;20074;-76
2021/04/25 05:27:50;;;;;;;64.00;29.95;;;5.40;86.00;;;;;;5071670;28;20119;-76
2021/04/25 05:30:16;;;;;;;256.05;90.22;;;5.50;84.80;;;;;;5072612;28;20016;-76
2021/04/25 05:32:42;;;;;;;222.50;75.05;;;5.50;82.30;;;;;;5073814;28;20016;-75
2021/04/25 05:35:08;;;;;;;150.63;52.60;;;5.60;84.30;;;;;;5073786;28;20069;-75
2021/04/25 05:37:33;;;;;;;126.85;40.30;;;5.70;86.50;;;;;;5073044;28;20031;-75
2021/04/25 05:39:59;;;;;;;256.85;95.28;;;5.70;86.00;;;;;;5073642;28;20490;-76
2021/04/25 05:42:25;;;;;;;282.23;97.93;;;5.80;86.30;;;;;;5073274;28;20076;-75
2021/04/25 05:44:51;;;;;;;200.02;73.55;;;5.80;84.00;;;;;;5073535;28;20024;-77
2021/04/25 05:47:17;;;;;;;92.13;36.53;;;5.90;84.70;;;;;;5072177;28;20114;-75
2021/04/25 05:49:43;;;;;;;61.55;27.33;;;6.00;83.40;;;;;;5073547;28;20016;-76
2021/04/25 05:52:08;;;;;;;57.92;26.13;;;6.10;82.20;;;;;;5072031;28;20527;-75
2021/04/25 05:54:35;;;;;;;51.30;25.83;;;6.20;80.40;;;;;;5072157;28;20033;-76
2021/04/25 05:57:00;;;;;;;190.52;64.55;;;6.20;76.90;;;;;;5058953;28;20472;-76
2021/04/25 05:59:26;;;;;;;63.10;26.75;;;6.30;77.30;;;;;;5051994;28;20064;-76
2021/04/25 06:01:51;;;;;;;45.35;20.88;;;6.30;76.10;;;;;;5053226;28;20394;-76
2021/04/25 06:04:17;;;;;;;45.83;22.77;;;6.30;77.60;;;;;;5053261;28;20036;-76
2021/04/25 06:06:43;;;;;;;82.63;34.85;;;6.50;77.20;;;;;;5053114;28;20033;-75
2021/04/25 06:09:08;;;;;;;82.18;33.70;;;6.50;77.30;;;;;;5051768;28;20032;-77
2021/04/25 06:11:35;;;;;;;54.50;24.08;;;6.60;75.20;;;;;;5053108;28;20276;-76
2021/04/25 06:14:01;;;;;;;46.72;20.35;;;6.80;74.70;;;;;;5051771;28;20027;-78
2021/04/25 06:16:27;;;;;;;44.72;20.27;;;6.90;72.70;;;;;;5059668;28;20029;-77
2021/04/25 06:18:52;;;;;;;42.78;21.52;;;7.00;71.20;;;;;;5066056;28;20029;-76
2021/04/25 06:21:18;;;;;;;35.80;19.58;;;7.10;70.00;;;;;;5071742;28;20056;-77
2021/04/25 06:23:43;;;;;;;38.97;18.15;;;7.10;68.30;;;;;;5054621;28;20032;-76
2021/04/25 06:26:09;;;;;;;39.65;18.10;;;7.20;68.80;;;;;;5062929;28;20072;-77
2021/04/25 06:28:35;;;;;;;130.98;47.42;;;7.30;68.40;;;;;;5059981;28;20029;-76
2021/04/25 06:31:01;;;;;;;52.85;21.85;;;7.30;68.20;;;;;;5063295;28;20504;-77
2021/04/25 06:33:26;;;;;;;68.95;26.63;;;7.30;66.70;;;;;;5060930;28;20031;-76
2021/04/25 06:35:52;;;;;;;47.97;19.77;;;7.40;66.20;;;;;;5061670;28;20096;-76
2021/04/25 06:38:18;;;;;;;32.72;15.93;;;7.60;68.10;;;;;;5056696;28;20385;-76
2021/04/25 06:40:44;;;;;;;26.75;14.40;;;7.70;65.50;;;;;;5052647;28;20100;-77
2021/04/25 06:43:09;;;;;;;35.88;16.10;;;7.90;63.50;;;;;;5065969;28;20020;-77
2021/04/25 06:45:35;;;;;;;29.88;14.85;;;8.10;60.90;;;;;;5064281;28;20024;-77
2021/04/25 06:48:01;;;;;;;30.88;14.27;;;8.00;58.20;;;;;;5063111;28;20432;-77
2021/04/25 06:50:27;;;;;;;30.25;15.82;;;8.10;58.10;;;;;;5060727;28;20028;-77
2021/04/25 06:52:53;;;;;;;29.60;15.02;;;8.20;58.90;;;;;;5064000;28;20028;-76
2021/04/25 06:55:24;;;;;;;28.60;14.35;;;8.30;58.40;;;;;;5075516;28;20020;-77
2021/04/25 06:57:51;;;;;;;24.85;11.77;;;8.40;57.60;;;;;;5076184;28;20024;-76
2021/04/25 07:00:19;;;;;;;24.63;11.18;;;8.50;56.00;;;;;;5076691;28;20031;-76
2021/04/25 07:02:45;;;;;;;28.63;11.88;;;8.60;55.90;;;;;;5075206;28;20020;-75
2021/04/25 07:05:12;;;;;;;17.92;8.68;;;8.70;53.60;;;;;;5075276;28;20024;-76
2021/04/25 07:07:38;;;;;;;17.45;9.75;;;8.70;51.20;;;;;;5075097;28;20029;-77
2021/04/25 07:10:04;;;;;;;9.32;4.72;;;8.60;50.80;;;;;;5074926;28;20108;-77
2021/04/25 07:12:30;;;;;;;7.35;3.58;;;8.50;47.20;;;;;;5056468;28;20029;-76
2021/04/25 07:14:57;;;;;;;6.55;4.05;;;8.40;44.70;;;;;;5055048;28;20063;-77
2021/04/25 07:17:26;;;;;;;8.63;5.20;;;8.30;43.30;;;;;;5065404;28;20090;-75
2021/04/25 07:19:52;;;;;;;8.15;5.05;;;8.20;43.60;;;;;;5071461;28;20034;-76
2021/04/25 07:22:18;;;;;;;11.07;5.28;;;8.20;43.70;;;;;;5071244;28;20455;-75
2021/04/25 07:24:43;;;;;;;9.23;4.95;;;8.20;43.50;;;;;;5069149;28;20031;-75
2021/04/25 07:27:09;;;;;;;10.50;5.13;;;8.40;44.10;;;;;;5073531;28;20382;-75
2021/04/25 07:29:36;;;;;;;9.35;5.07;;;8.30;44.70;;;;;;5073619;28;20029;-76
2021/04/25 07:32:05;;;;;;;8.63;4.65;;;8.40;44.30;;;;;;5073342;28;20020;-75
2021/04/25 07:34:30;;;;;;;5.30;3.60;;;8.30;43.40;;;;;;5071320;28;20020;-75
2021/04/25 07:36:56;;;;;;;8.50;4.95;;;8.10;42.50;;;;;;5070834;28;20082;-76
2021/04/25 07:39:22;;;;;;;7.80;4.25;;;8.10;42.30;;;;;;5072854;28;20024;-75
2021/04/25 07:41:48;;;;;;;4.45;2.67;;;8.20;43.30;;;;;;5072447;28;20066;-75
2021/04/25 07:44:14;;;;;;;4.80;4.00;;;8.10;41.40;;;;;;5075797;28;20109;-76
2021/04/25 07:46:39;;;;;;;6.07;3.33;;;8.20;40.10;;;;;;5075706;28;20047;-75
2021/04/25 07:49:05;;;;;;;5.90;3.20;;;8.40;40.70;;;;;;5075843;28;20047;-76
2021/04/25 07:51:31;;;;;;;9.70;5.70;;;8.30;39.80;;;;;;5074299;28;20523;-75
2021/04/25 07:53:59;;;;;;;8.52;3.80;;;8.30;39.70;;;;;;5075519;28;20095;-75
2021/04/25 07:56:25;;;;;;;5.63;3.50;;;8.50;40.60;;;;;;5074814;28;20140;-75
2021/04/25 07:58:50;;;;;;;9.05;3.28;;;8.70;41.20;;;;;;5074039;28;20076;-75
2021/04/25 08:01:16;;;;;;;5.72;3.15;;;8.70;39.20;;;;;;5069292;28;20036;-76
2021/04/25 08:03:42;;;;;;;14.55;7.90;;;8.60;38.10;;;;;;5061827;28;20104;-74
2021/04/25 08:06:07;;;;;;;20.05;8.52;;;8.50;37.40;;;;;;5060538;28;20033;-76
2021/04/25 08:08:33;;;;;;;100.93;41.80;;;8.60;37.00;;;;;;5057849;28;20051;-75
2021/04/25 08:11:00;;;;;;;446.00;178.25;;;8.60;36.90;;;;;;5054078;28;20091;-75
2021/04/25 08:13:25;;;;;;;418.65;128.23;;;8.90;37.40;;;;;;5058563;28;20025;-75
2021/04/25 08:15:51;;;;;;;6.90;3.65;;;9.10;37.40;;;;;;5071288;28;20029;-76
2021/04/25 08:18:17;;;;;;;39.60;14.88;;;9.10;37.30;;;;;;5075175;28;20029;-75
2021/04/25 08:20:42;;;;;;;97.40;36.70;;;9.10;36.90;;;;;;5075187;28;20385;-76
2021/04/25 08:23:08;;;;;;;200.70;84.88;;;9.40;37.50;;;;;;5075186;28;20024;-75
2021/04/25 08:25:34;;;;;;;339.33;142.27;;;9.60;36.90;;;;;;5075192;28;20020;-76
2021/04/25 08:28:00;;;;;;;6.15;3.95;;;9.60;36.90;;;;;;5074904;28;20493;-75
2021/04/25 08:30:26;;;;;;;177.18;66.53;;;9.70;36.50;;;;;;5069819;28;20032;-76
2021/04/25 08:32:51;;;;;;;6.85;3.60;;;9.80;36.30;;;;;;5054918;28;20025;-75
2021/04/25 08:35:19;;;;;;;92.63;32.90;;;9.60;35.60;;;;;;5054334;28;20383;-76
2021/04/25 08:37:45;;;;;;;4.65;2.70;;;9.70;36.00;;;;;;5064723;28;20381;-75
2021/04/25 08:40:12;;;;;;;76.13;23.75;;;9.20;35.50;;;;;;5073026;28;20475;-75
2021/04/25 08:42:37;;;;;;;57.75;18.75;;;9.10;35.40;;;;;;5069131;28;20126;-75
2021/04/25 08:45:04;;;;;;;22.35;9.73;;;9.10;35.10;;;;;;5057979;28;20071;-76
2021/04/25 08:47:30;;;;;;;18.92;6.80;;;9.60;36.30;;;;;;5053292;28;20123;-75
2021/04/25 08:50:03;;;;;;;3.42;2.92;;;9.80;35.00;;;;;;5053597;28;20048;-75
2021/04/25 08:52:30;;;;;;;105.63;31.90;;;9.70;34.80;;;;;;5054564;28;20020;-75
2021/04/25 08:54:57;;;;;;;88.05;26.90;;;9.70;34.70;;;;;;5054504;28;20053;-76
2021/04/25 08:57:22;;;;;;;82.50;28.52;;;9.20;33.90;;;;;;5056450;28;20484;-75
2021/04/25 08:59:48;;;;;;;3.88;2.58;;;9.40;35.00;;;;;;5061825;28;20040;-75
2021/04/25 09:02:14;;;;;;;58.50;19.38;;;9.00;35.40;;;;;;5061020;28;20074;-75
2021/04/25 09:04:39;;;;;;;4.82;2.90;;;8.80;35.70;;;;;;5057474;28;20028;-76
2021/04/25 09:07:12;;;;;;;7.13;3.45;;;8.60;36.10;;;;;;5061574;28;20414;-75
2021/04/25 09:09:50;;;;;;;5.20;3.40;;;8.60;36.70;;;;;;5060515;28;20020;-75
2021/04/25 09:12:34;;;;;;;4.35;2.40;;;8.60;37.20;;;;;;5069174;28;20146;-76
2021/04/25 09:15:05;;;;;;;4.38;2.25;;;8.50;36.90;;;;;;5061065;28;20039;-75
2021/04/25 09:17:47;;;;;;;34.85;11.38;;;8.50;36.70;;;;;;5062339;28;20124;-75
2021/04/25 09:20:13;;;;;;;10.02;5.18;;;8.60;36.90;;;;;;5061448;28;20027;-75
2021/04/25 09:22:42;;;;;;;31.40;9.90;;;8.70;37.00;;;;;;5056988;28;20111;-74
2021/04/25 09:25:10;;;;;;;9.13;5.30;;;8.80;37.40;;;;;;5052537;28;20029;-77
2021/04/25 09:27:35;;;;;;;19.08;7.53;;;9.00;37.60;;;;;;5053709;28;20056;-74
2021/04/25 09:30:03;;;;;;;28.05;11.57;;;9.10;37.20;;;;;;5052508;28;20056;-76
2021/04/25 09:32:30;;;;;;;21.63;9.18;;;9.50;37.40;;;;;;5053629;28;20021;-76
2021/04/25 09:35:10;;;;;;;50.97;15.60;;;9.70;36.30;;;;;;5063638;28;20095;-76
2021/04/25 09:37:38;;;;;;;32.42;14.73;;;9.70;36.20;;;;;;5073541;28;20020;-76
2021/04/25 09:40:15;;;;;;;5.45;2.35;;;9.70;35.30;;;;;;5072242;28;20410;-76
2021/04/25 09:42:58;;;;;;;20.63;7.10;;;9.60;35.10;;;;;;5073504;28;20028;-75
2021/04/25 09:45:39;;;;;;;14.40;6.55;;;9.40;34.80;;;;;;5073597;28;20485;-75
2021/04/25 09:48:23;;;;;;;14.40;6.63;;;9.40;35.10;;;;;;5071897;28;20406;-75
2021/04/25 09:51:04;;;;;;;54.47;14.57;;;9.40;36.20;;;;;;5072057;28;20124;-75
2021/04/25 09:53:29;;;;;;;34.40;10.43;;;9.20;36.80;;;;;;5073396;28;20082;-75
2021/04/25 09:55:59;;;;;;;53.22;17.00;;;9.10;37.50;;;;;;5071957;28;20024;-76
2021/04/25 09:58:27;;;;;;;46.03;17.98;;;9.00;39.90;;;;;;5070017;28;20124;-76
2021/04/25 10:00:53;;;;;;;7.65;4.68;;;8.90;42.00;;;;;;5052893;28;20033;-75
2021/04/25 10:03:19;;;;;;;13.98;7.35;;;8.50;42.50;;;;;;5052691;28;20044;-75
2021/04/25 10:06:04;;;;;;;12.45;5.45;;;8.40;42.90;;;;;;5070587;28;20122;-76
2021/04/25 10:08:36;;;;;;;9.90;4.28;;;8.40;43.30;;;;;;5072911;28;20028;-75
2021/04/25 10:11:06;;;;;;;5.63;3.88;;;8.50;43.90;;;;;;5071437;28;20024;-75
2021/04/25 10:13:33;;;;;;;7.95;4.32;;;8.70;43.60;;;;;;5070764;28;20486;-76
2021/04/25 10:16:00;;;;;;;18.10;6.88;;;8.50;43.40;;;;;;5071391;28;20454;-75
2021/04/25 10:18:26;;;;;;;62.03;20.55;;;8.90;44.30;;;;;;5071257;28;20067;-75
2021/04/25 10:20:53;;;;;;;30.38;9.65;;;8.90;44.60;;;;;;5071204;28;20027;-76
2021/04/25 10:23:21;;;;;;;36.17;12.63;;;9.10;42.90;;;;;;5071280;28;20482;-76
2021/04/25 10:25:48;;;;;;;7.82;4.25;;;9.50;42.00;;;;;;5072866;28;20017;-76
2021/04/25 10:28:29;;;;;;;18.08;6.60;;;9.80;42.50;;;;;;5070300;28;20421;-76
2021/04/25 10:31:01;;;;;;;15.43;6.13;;;9.60;41.40;;;;;;5072859;28;20107;-76
2021/04/25 10:34:04;;;;;;;6.47;3.93;;;9.80;41.40;;;;;;5071671;28;20028;-76
2021/04/25 10:36:48;;;;;;;7.70;4.25;;;9.70;41.70;;;;;;5065546;28;20275;-76
2021/04/25 10:39:32;;;;;;;14.00;5.10;;;10.20;42.60;;;;;;5051027;28;20124;-76
2021/04/25 10:42:26;;;;;;;15.13;5.25;;;10.20;41.90;;;;;;5061932;28;20056;-76
2021/04/25 10:47:31;;;;;;;29.55;11.55;;;9.90;40.00;;;;;;5072940;28;20123;-75
2021/04/25 10:49:59;;;;;;;16.30;6.65;;;9.70;41.20;;;;;;5072633;28;20032;-75
2021/04/25 10:52:30;;;;;;;12.00;5.78;;;9.70;41.40;;;;;;5071814;28;20029;-76
2021/04/25 10:55:10;;;;;;;12.63;4.80;;;9.80;41.70;;;;;;5071092;28;20542;-76
2021/04/25 10:57:55;;;;;;;7.20;3.10;;;9.40;40.70;;;;;;5071025;28;20059;-76
2021/04/25 11:00:30;;;;;;;7.50;2.90;;;9.10;40.30;;;;;;5072223;28;20425;-75
2021/04/25 11:02:59;;;;;;;6.85;2.75;;;9.30;41.00;;;;;;5072414;28;20062;-76
2021/04/25 11:05:37;;;;;;;6.38;3.55;;;9.20;39.90;;;;;;5070767;28;20031;-75
2021/04/25 11:08:28;;;;;;;16.02;6.15;;;9.30;40.00;;;;;;5050898;28;20143;-75
2021/04/25 11:10:58;;;;;;;6.90;4.05;;;9.10;40.30;;;;;;5051307;28;20445;-76
2021/04/25 11:13:33;;;;;;;8.60;3.28;;;8.90;39.30;;;;;;5050886;28;20056;-76
2021/04/25 11:16:04;;;;;;;3.40;2.47;;;9.30;39.80;;;;;;5052026;28;20021;-76
2021/04/25 11:18:43;;;;;;;7.15;3.78;;;9.30;40.20;;;;;;5065622;28;20017;-76
2021/04/25 11:22:08;;;;;;;12.50;4.22;;;9.00;39.30;;;;;;5071054;28;20025;-76
2021/04/25 11:24:15;;;;;;;17.75;5.97;;;8.90;39.60;;;;;;5059874;28;20032;-75
2021/04/25 11:26:42;;;;;;;6.95;2.97;;;8.90;39.90;;;;;;5061272;28;20053;-76
2021/04/25 11:29:12;;;;;;;11.82;5.57;;;8.90;40.20;;;;;;5072045;28;20099;-75
2021/04/25 11:31:47;;;;;;;16.77;7.20;;;8.90;40.40;;;;;;5070138;28;20024;-75
2021/04/25 11:34:36;;;;;;;6.00;2.78;;;9.20;40.60;;;;;;5064742;28;20031;-75
2021/04/25 11:37:08;;;;;;;73.95;30.88;;;9.20;40.70;;;;;;5060747;28;20115;-76
2021/04/25 11:39:43;;;;;;;155.27;72.60;;;9.00;40.40;;;;;;5053623;28;20025;-77
2021/04/25 11:42:10;;;;;;;4.28;3.15;;;9.00;40.20;;;;;;5072172;28;20051;-75
2021/04/25 11:44:38;;;;;;;138.18;69.45;;;8.90;39.80;;;;;;5075357;28;20046;-76
2021/04/25 11:47:12;;;;;;;15.73;8.65;;;8.90;39.70;;;;;;5073593;28;20493;-76
2021/04/25 11:49:40;;;;;;;80.82;42.30;;;9.20;40.60;;;;;;5074089;28;20360;-76
2021/04/25 11:52:13;;;;;;;23.52;10.82;;;9.20;39.60;;;;;;5075214;28;20024;-75
2021/04/25 11:54:40;;;;;;;13.18;7.38;;;9.30;39.90;;;;;;5073666;28;20025;-75
2021/04/25 11:57:16;;;;;;;14.88;8.65;;;9.00;39.30;;;;;;5073189;28;20090;-76
2021/04/25 11:59:55;;;;;;;5.72;3.65;;;8.90;39.10;;;;;;5073881;28;20028;-75
2021/04/25 12:02:29;;;;;;;56.72;31.25;;;8.80;39.20;;;;;;5073140;28;20028;-76
2021/04/25 12:05:06;;;;;;;27.90;15.07;;;8.80;39.60;;;;;;5068961;28;20023;-76
2021/04/25 12:07:40;;;;;;;42.88;22.25;;;9.00;40.00;;;;;;5062318;28;20068;-76
2021/04/25 12:10:33;;;;;;;78.55;39.60;;;9.10;39.90;;;;;;5069520;28;20032;-75
2021/04/25 12:13:08;;;;;;;;;;;8.90;39.10;;;;;;5073853;28;20040;-75
2021/04/25 12:15:41;;;;;;;37.58;19.48;;;9.30;39.30;;;;;;5068719;28;20429;-75
2021/04/25 12:18:07;;;;;;;23.70;14.43;;;9.50;39.40;;;;;;5065954;28;20021;-75
2021/04/25 12:20:39;;;;;;;33.65;18.15;;;9.40;38.90;;;;;;5067507;28;20024;-76
2021/04/25 12:23:05;;;;;;;9.10;6.28;;;9.50;38.70;;;;;;5073406;28;20039;-76
2021/04/25 12:25:31;;;;;;;6.75;4.85;;;9.50;38.50;;;;;;5064826;28;20048;-76
2021/04/25 12:27:58;;;;;;;7.88;5.80;;;9.50;39.00;;;;;;5069090;28;20063;-76
2021/04/25 12:30:28;;;;;;;6.45;3.25;;;9.20;39.00;;;;;;5064924;28;20024;-76
2021/04/25 12:33:10;;;;;;;5.95;3.60;;;9.40;39.20;;;;;;5063276;28;20028;-76
2021/04/25 12:35:47;;;;;;;135.60;48.13;;;9.60;38.60;;;;;;5068886;28;20021;-75
2021/04/25 12:38:21;;;;;;;16.70;8.55;;;9.50;38.60;;;;;;5062782;28;20470;-75
2021/04/25 12:41:02;;;;;;;133.15;57.97;;;8.90;38.50;;;;;;5072911;28;20067;-76
2021/04/25 12:43:46;;;;;;;2.58;1.92;;;8.70;38.50;;;;;;5064184;28;20029;-75
2021/04/25 12:46:21;;;;;;;4.80;3.28;;;8.50;38.50;;;;;;5066409;28;20045;-75
2021/04/25 12:48:58;;;;;;;87.85;37.17;;;8.40;38.60;;;;;;5062572;28;20029;-75